createdAt,value
2022-09-04T00:02:17.034Z,3.77
2022-09-04T00:05:05.238Z,3.87
2022-09-04T00:07:53.241Z,3.70
2022-09-04T00:10:45.929Z,3.90
2022-09-04T00:13:23.885Z,4.00
2022-09-04T00:16:09.564Z,4.23
2022-09-04T00:18:49.464Z,4.10
2022-09-04T00:21:26.305Z,4.27
2022-09-04T00:23:59.737Z,4.27
2022-09-04T00:26:42.424Z,4.30
2022-09-04T00:29:20.970Z,4.40
2022-09-04T00:31:54.048Z,3.90
2022-09-04T00:34:55.679Z,3.83
2022-09-04T00:37:28.997Z,4.53
2022-09-04T00:40:01.568Z,4.20
2022-09-04T00:43:06.983Z,4.10
2022-09-04T00:45:52.509Z,4.30
2022-09-04T00:48:55.628Z,4.23
2022-09-04T00:51:37.197Z,4.10
2022-09-04T00:54:48.109Z,4.33
2022-09-04T00:57:44.410Z,4.47
2022-09-04T01:00:17.070Z,4.23
2022-09-04T01:03:07.773Z,4.40
2022-09-04T01:05:59.522Z,4.40
2022-09-04T01:08:56.210Z,4.13
2022-09-04T01:11:56.328Z,4.07
2022-09-04T01:14:40.099Z,4.87
2022-09-04T01:17:17.893Z,4.93
2022-09-04T01:19:55.917Z,4.93
2022-09-04T01:22:41.313Z,4.10
2022-09-04T01:25:29.622Z,4.37
2022-09-04T01:28:04.838Z,4.00
2022-09-04T01:30:47.568Z,4.30
2022-09-04T01:33:30.074Z,4.63
2022-09-04T01:36:22.796Z,4.00
2022-09-04T01:38:59.927Z,5.00
2022-09-04T01:41:54.334Z,4.10
2022-09-04T01:44:20.736Z,4.70
2022-09-04T01:47:03.083Z,4.40
2022-09-04T01:49:43.361Z,4.73
2022-09-04T01:52:36.356Z,4.20
2022-09-04T01:55:13.541Z,4.43
2022-09-04T01:58:11.149Z,3.90
2022-09-04T02:00:57.586Z,4.33
2022-09-04T02:03:50.513Z,4.43
2022-09-04T02:06:37.933Z,5.67
2022-09-04T02:09:24.556Z,4.33
2022-09-04T02:12:12.024Z,4.40
2022-09-04T02:14:58.710Z,4.47
2022-09-04T02:17:56.010Z,4.17
2022-09-04T02:20:28.069Z,4.20
2022-09-04T02:23:15.358Z,4.47
2022-09-04T02:25:50.887Z,4.73
2022-09-04T02:28:29.431Z,4.70
2022-09-04T02:31:19.967Z,4.10
2022-09-04T02:34:28.489Z,4.17
2022-09-04T02:37:03.900Z,5.00
2022-09-04T02:39:52.417Z,4.63
2022-09-04T02:42:33.673Z,4.30
2022-09-04T02:45:24.153Z,4.57
2022-09-04T02:47:55.687Z,4.70
2022-09-04T02:50:34.117Z,4.57
2022-09-04T02:53:25.932Z,4.90
2022-09-04T02:56:09.535Z,5.23
2022-09-04T02:59:03.255Z,4.80
2022-09-04T03:01:57.411Z,4.00
2022-09-04T03:04:49.899Z,4.53
2022-09-04T03:07:31.585Z,4.87
2022-09-04T03:10:03.710Z,5.43
2022-09-04T03:12:47.649Z,4.87
2022-09-04T03:15:29.143Z,5.07
2022-09-04T03:18:24.887Z,4.30
2022-09-04T03:20:59.294Z,4.70
2022-09-04T03:23:39.610Z,4.70
2022-09-04T03:26:29.725Z,5.30
2022-09-04T03:29:11.693Z,4.90
2022-09-04T03:32:15.135Z,4.93
2022-09-04T03:35:06.102Z,5.40
2022-09-04T03:38:13.629Z,4.80
2022-09-04T03:40:45.585Z,4.83
2022-09-04T03:43:41.349Z,4.77
2022-09-04T03:46:49.242Z,4.93
2022-09-04T03:49:56.937Z,4.87
2022-09-04T03:53:00.523Z,4.67
2022-09-04T03:55:55.027Z,5.17
2022-09-04T03:58:47.273Z,5.03
2022-09-04T04:01:24.701Z,4.80
2022-09-04T04:04:03.111Z,4.60
2022-09-04T04:06:53.729Z,4.67
2022-09-04T04:09:33.558Z,4.93
2022-09-04T04:12:18.982Z,4.87
2022-09-04T04:14:59.324Z,4.90
2022-09-04T04:18:02.157Z,5.20
2022-09-04T04:20:44.421Z,5.00
2022-09-04T04:23:46.800Z,5.47
2022-09-04T04:27:00.805Z,4.90
2022-09-04T04:29:55.666Z,5.03
2022-09-04T04:32:37.317Z,4.73
2022-09-04T04:35:08.582Z,4.93
2022-09-04T04:37:56.142Z,5.20
2022-09-04T04:40:45.257Z,5.27
2022-09-04T04:43:44.409Z,5.13
2022-09-04T04:46:20.176Z,5.63
2022-09-04T04:49:05.065Z,4.97
2022-09-04T04:51:50.773Z,6.47
2022-09-04T04:54:42.344Z,5.10
2022-09-04T04:57:13.075Z,5.30
2022-09-04T05:00:07.649Z,5.30
2022-09-04T05:02:53.094Z,5.70
2022-09-04T05:05:41.540Z,5.20
2022-09-04T05:08:22.690Z,5.63
2022-09-04T05:10:56.376Z,5.10
2022-09-04T05:13:32.641Z,5.47
2022-09-04T05:16:35.853Z,4.93
2022-09-04T05:19:15.616Z,5.03
2022-09-04T05:22:09.174Z,5.10
2022-09-04T05:24:54.155Z,5.80
2022-09-04T05:27:22.318Z,5.83
2022-09-04T05:29:58.176Z,6.03
2022-09-04T05:32:32.482Z,5.50
2022-09-04T05:35:17.699Z,5.30
2022-09-04T05:37:53.368Z,5.63
2022-09-04T05:40:19.804Z,5.70
2022-09-04T05:43:08.065Z,6.13
2022-09-04T05:45:52.401Z,5.27
2022-09-04T05:48:26.108Z,5.03
2022-09-04T05:51:22.487Z,5.13
2022-09-04T05:54:01.215Z,5.20
2022-09-04T05:56:45.456Z,6.40
2022-09-04T05:59:31.872Z,5.87
2022-09-04T06:02:35.584Z,5.20
2022-09-04T06:05:24.277Z,6.10
2022-09-04T06:07:50.573Z,5.90
2022-09-04T06:10:31.069Z,5.30
2022-09-04T06:13:31.512Z,5.00
2022-09-04T06:16:08.018Z,5.10
2022-09-04T06:18:49.148Z,4.70
2022-09-04T06:21:56.638Z,5.50
2022-09-04T06:24:39.651Z,5.67
2022-09-04T06:27:17.463Z,5.20
2022-09-04T06:30:05.145Z,5.17
2022-09-04T06:32:53.367Z,5.40
2022-09-04T06:35:23.720Z,4.70
2022-09-04T06:38:02.253Z,5.70
2022-09-04T06:41:10.745Z,4.77
2022-09-04T06:44:12.456Z,4.50
2022-09-04T06:46:51.619Z,4.97
2022-09-04T06:49:19.040Z,4.60
2022-09-04T06:52:03.096Z,5.80
2022-09-04T06:54:56.020Z,5.90
2022-09-04T06:57:47.965Z,5.13
2022-09-04T07:00:17.064Z,5.17
2022-09-04T07:03:02.739Z,5.30
2022-09-04T07:05:36.101Z,5.27
2022-09-04T07:08:13.088Z,5.60
2022-09-04T07:10:58.765Z,4.73
2022-09-04T07:13:49.160Z,5.57
2022-09-04T07:16:41.008Z,5.53
2022-09-04T07:19:33.021Z,5.30
2022-09-04T07:22:18.920Z,5.00
2022-09-04T07:25:11.662Z,5.30
2022-09-04T07:28:01.954Z,5.80
2022-09-04T07:30:35.857Z,5.90
2022-09-04T07:33:11.540Z,4.60
2022-09-04T07:35:56.268Z,5.00
2022-09-04T07:38:34.929Z,5.47
2022-09-04T07:41:10.528Z,5.80
2022-09-04T07:44:04.060Z,6.07
2022-09-04T07:46:48.778Z,6.10
2022-09-04T07:49:36.684Z,5.53
2022-09-04T07:52:19.845Z,5.20
2022-09-04T07:55:06.457Z,6.03
2022-09-04T07:58:03.163Z,6.07
2022-09-04T08:00:39.592Z,5.03
2022-09-04T08:03:17.519Z,5.90
2022-09-04T08:06:11.622Z,6.00
2022-09-04T08:08:52.172Z,4.87
2022-09-04T08:11:39.865Z,6.00
2022-09-04T08:14:31.793Z,5.37
2022-09-04T08:17:24.498Z,6.40
2022-09-04T08:20:28.983Z,5.10
2022-09-04T08:23:08.598Z,5.00
2022-09-04T08:26:17.765Z,5.60
2022-09-04T08:28:47.296Z,4.67
2022-09-04T08:31:34.390Z,5.60
2022-09-04T08:34:08.804Z,5.00
2022-09-04T08:36:53.499Z,4.63
2022-09-04T08:39:36.480Z,4.63
2022-09-04T08:42:42.654Z,4.50
2022-09-04T08:45:27.162Z,5.00
2022-09-04T08:48:02.803Z,4.40
2022-09-04T08:50:32.091Z,4.40
2022-09-04T08:53:42.943Z,4.00
2022-09-04T08:56:26.283Z,4.00
2022-09-04T08:59:10.993Z,5.10
2022-09-04T09:02:15.001Z,4.00
2022-09-04T09:05:16.411Z,4.00
2022-09-04T09:07:48.545Z,4.23
2022-09-04T09:11:05.608Z,4.43
2022-09-04T09:13:46.634Z,4.20
2022-09-04T09:16:24.709Z,4.27
2022-09-04T09:19:19.650Z,3.80
2022-09-04T09:22:05.925Z,4.40
2022-09-04T09:24:43.740Z,3.80
2022-09-04T09:27:34.818Z,4.13
2022-09-04T09:30:27.476Z,4.07
2022-09-04T09:33:21.554Z,4.10
2022-09-04T09:36:09.126Z,4.03
2022-09-04T09:38:38.830Z,4.10
2022-09-04T09:41:53.297Z,3.90
2022-09-04T09:44:53.843Z,4.00
2022-09-04T09:47:44.953Z,4.20
2022-09-04T09:50:34.293Z,3.73
2022-09-04T09:53:09.653Z,3.80
2022-09-04T09:55:58.445Z,3.70
2022-09-04T09:58:49.853Z,3.10
2022-09-04T10:01:48.237Z,3.17
2022-09-04T10:04:21.441Z,3.80
2022-09-04T10:07:06.571Z,2.97
2022-09-04T10:09:59.805Z,3.13
2022-09-04T10:12:44.689Z,3.03
2022-09-04T10:15:41.613Z,3.40
2022-09-04T10:18:45.269Z,3.57
2022-09-04T10:21:48.662Z,3.30
2022-09-04T10:24:45.341Z,3.50
2022-09-04T10:27:43.954Z,2.80
2022-09-04T10:30:34.861Z,3.03
2022-09-04T10:33:11.321Z,3.10
2022-09-04T10:35:59.592Z,3.30
2022-09-04T10:39:04.311Z,3.43
2022-09-04T10:42:15.458Z,2.83
2022-09-04T10:45:07.089Z,2.93
2022-09-04T10:47:59.197Z,3.37
2022-09-04T10:51:05.647Z,3.63
2022-09-04T10:54:30.342Z,3.20
2022-09-04T10:57:28.216Z,3.10
2022-09-04T11:00:20.737Z,3.50
2022-09-04T11:03:14.773Z,2.80
2022-09-04T11:06:02.334Z,3.90
2022-09-04T11:08:36.037Z,3.60
2022-09-04T11:11:18.258Z,3.10
2022-09-04T11:14:20.521Z,3.27
2022-09-04T11:17:16.080Z,2.77
2022-09-04T11:20:28.212Z,3.03
2022-09-04T11:23:04.995Z,3.17
2022-09-04T11:26:05.866Z,3.33
2022-09-04T11:28:58.362Z,3.60
2022-09-04T11:31:48.288Z,3.70
2022-09-04T11:34:24.295Z,3.60
2022-09-04T11:37:15.909Z,3.33
2022-09-04T11:39:54.545Z,3.70
2022-09-04T11:42:33.361Z,3.43
2022-09-04T11:45:24.092Z,3.17
2022-09-04T11:48:12.133Z,3.20
2022-09-04T11:51:00.265Z,2.77
2022-09-04T11:54:00.369Z,3.50
2022-09-04T11:56:38.680Z,3.03
2022-09-04T11:59:16.825Z,3.30
2022-09-04T12:02:10.223Z,3.83
2022-09-04T12:04:51.153Z,3.30
2022-09-04T12:07:17.479Z,2.77
2022-09-04T12:09:51.268Z,2.93
2022-09-04T12:12:36.129Z,3.17
2022-09-04T12:15:08.718Z,3.30
2022-09-04T12:18:17.242Z,3.00
2022-09-04T12:20:51.420Z,3.10
2022-09-04T12:23:18.923Z,3.97
2022-09-04T12:26:12.719Z,3.13
2022-09-04T12:29:02.561Z,3.50
2022-09-04T12:31:51.669Z,3.00
2022-09-04T12:34:18.405Z,3.17
2022-09-04T12:37:03.448Z,3.20
2022-09-04T12:39:54.751Z,3.40
2022-09-04T12:42:33.640Z,3.50
2022-09-04T12:45:28.385Z,3.47
2022-09-04T12:48:33.166Z,3.43
2022-09-04T12:51:09.911Z,3.50
2022-09-04T12:54:03.344Z,3.03
2022-09-04T12:56:52.989Z,3.77
2022-09-04T12:59:40.417Z,3.33
2022-09-04T13:02:27.781Z,3.43
2022-09-04T13:05:25.010Z,3.13
2022-09-04T13:08:03.479Z,3.10
2022-09-04T13:10:41.282Z,3.00
2022-09-04T13:13:33.798Z,3.60
2022-09-04T13:16:09.004Z,3.50
2022-09-04T13:18:44.781Z,4.00
2022-09-04T13:21:35.000Z,3.50
2022-09-04T13:24:44.532Z,3.57
2022-09-04T13:27:26.597Z,3.40
2022-09-04T13:30:05.561Z,3.60
2022-09-04T13:32:41.793Z,4.33
2022-09-04T13:35:31.401Z,4.07
2022-09-04T13:38:24.225Z,3.70
2022-09-04T13:41:09.318Z,3.37
2022-09-04T13:44:00.565Z,3.20
2022-09-04T13:46:40.327Z,3.50
2022-09-04T13:49:14.767Z,3.70
2022-09-04T13:51:59.437Z,3.80
2022-09-04T13:54:43.842Z,3.80
2022-09-04T13:57:16.957Z,3.80
2022-09-04T13:59:49.919Z,3.53
2022-09-04T14:02:24.376Z,3.43
2022-09-04T14:05:16.398Z,3.90
2022-09-04T14:07:47.449Z,3.27
2022-09-04T14:10:22.758Z,2.90
2022-09-04T14:13:23.116Z,3.57
2022-09-04T14:16:15.846Z,3.50
2022-09-04T14:19:06.793Z,3.20
2022-09-04T14:22:18.780Z,3.60
2022-09-04T14:25:21.209Z,4.00
2022-09-04T14:27:57.233Z,3.40
2022-09-04T14:30:23.962Z,3.23
2022-09-04T14:33:03.876Z,3.13
2022-09-04T14:36:21.169Z,3.03
2022-09-04T14:39:25.362Z,3.30
2022-09-04T14:42:22.375Z,3.20
2022-09-04T14:45:12.508Z,3.07
2022-09-04T14:47:54.679Z,3.00
2022-09-04T14:50:28.244Z,3.40
2022-09-04T14:53:00.752Z,3.13
2022-09-04T14:55:31.336Z,3.30
2022-09-04T14:58:08.849Z,3.90
2022-09-04T15:00:57.153Z,3.63
2022-09-04T15:03:30.800Z,3.33
2022-09-04T15:06:05.615Z,2.90
2022-09-04T15:08:40.010Z,3.60
2022-09-04T15:11:13.125Z,3.33
2022-09-04T15:13:51.663Z,3.23
2022-09-04T15:16:35.569Z,3.10
2022-09-04T15:19:28.665Z,3.07
2022-09-04T15:22:11.536Z,3.77
2022-09-04T15:24:55.624Z,3.10
2022-09-04T15:27:35.157Z,3.10
2022-09-04T15:30:11.245Z,3.00
2022-09-04T15:32:42.514Z,3.03
2022-09-04T15:35:26.318Z,3.20
2022-09-04T15:38:20.915Z,3.00
2022-09-04T15:41:12.797Z,3.20
2022-09-04T15:43:43.778Z,2.93
2022-09-04T15:46:21.053Z,3.43
2022-09-04T15:49:09.169Z,2.80
2022-09-04T15:51:46.227Z,2.80
2022-09-04T15:54:32.153Z,3.00
2022-09-04T15:57:18.279Z,2.80
2022-09-04T16:00:01.305Z,3.10
2022-09-04T16:02:59.332Z,3.30
2022-09-04T16:05:41.499Z,3.23
2022-09-04T16:08:29.545Z,3.07
2022-09-04T16:11:11.541Z,2.53
2022-09-04T16:13:45.690Z,3.00
2022-09-04T16:16:44.445Z,3.00
2022-09-04T16:19:38.485Z,3.20
2022-09-04T16:22:26.084Z,3.47
2022-09-04T16:25:31.931Z,2.60
2022-09-04T16:28:31.639Z,2.70
2022-09-04T16:31:04.658Z,3.10
2022-09-04T16:33:40.117Z,2.90
2022-09-04T16:36:11.358Z,2.97
2022-09-04T16:38:52.406Z,2.77
2022-09-04T16:41:37.659Z,3.10
2022-09-04T16:44:36.958Z,2.80
2022-09-04T16:47:11.072Z,2.90
2022-09-04T16:49:59.368Z,3.50
2022-09-04T16:52:31.855Z,3.13
2022-09-04T16:55:31.215Z,3.47
2022-09-04T16:58:06.217Z,3.20
2022-09-04T17:01:00.318Z,3.10
2022-09-04T17:04:13.522Z,2.93
2022-09-04T17:06:54.107Z,2.67
2022-09-04T17:09:28.454Z,3.10
2022-09-04T17:12:03.096Z,3.10
2022-09-04T17:14:43.025Z,4.10
2022-09-04T17:17:31.209Z,3.93
2022-09-04T17:20:00.524Z,3.20
2022-09-04T17:26:26.805Z,2.97
2022-09-04T17:29:08.798Z,3.10
2022-09-04T17:29:19.383Z,3.40
2022-09-04T17:31:52.935Z,3.30
2022-09-04T17:40:34.778Z,3.37
2022-09-04T17:40:55.519Z,3.30
2022-09-04T17:41:35.843Z,3.40
2022-09-04T17:44:01.828Z,3.07
2022-09-04T17:46:36.531Z,3.63
2022-09-04T17:49:29.406Z,4.10
2022-09-04T17:52:07.078Z,3.70
2022-09-04T17:54:40.068Z,3.70
2022-09-04T17:57:14.693Z,3.30
2022-09-04T17:59:52.883Z,3.70
2022-09-04T18:02:57.158Z,3.47
2022-09-04T18:05:51.499Z,4.30
2022-09-04T18:08:20.340Z,4.20
2022-09-04T18:10:56.009Z,3.67
2022-09-04T18:13:40.546Z,3.43
2022-09-04T18:16:14.797Z,3.60
2022-09-04T18:18:58.659Z,4.10
2022-09-04T18:21:45.901Z,4.30
2022-09-04T18:24:21.209Z,4.40
2022-09-04T18:26:56.640Z,5.13
2022-09-04T18:33:22.537Z,5.93
2022-09-04T18:37:22.868Z,5.33
2022-09-04T18:37:26.558Z,6.00
2022-09-04T18:38:34.292Z,5.50
2022-09-04T18:43:33.254Z,4.13
2022-09-04T18:50:25.839Z,4.30
2022-09-04T18:50:31.759Z,4.20
2022-09-04T18:50:43.338Z,3.60
2022-09-04T18:52:58.791Z,3.97
2022-09-04T18:55:42.377Z,3.80
2022-09-04T18:58:11.749Z,3.80
2022-09-04T19:00:44.358Z,4.77
2022-09-04T19:03:18.853Z,4.07
2022-09-04T19:05:48.779Z,3.53
2022-09-04T19:08:25.426Z,4.10
2022-09-04T19:10:59.986Z,4.03
2022-09-04T19:13:29.808Z,3.63
2022-09-04T19:16:22.517Z,3.87
2022-09-04T19:18:55.278Z,4.57
2022-09-04T19:21:34.109Z,3.33
2022-09-04T19:24:16.146Z,3.77
2022-09-04T19:26:52.138Z,3.83
2022-09-04T19:29:30.527Z,3.70
2022-09-04T19:32:09.438Z,4.30
2022-09-04T19:34:41.920Z,4.07
2022-09-04T19:37:54.387Z,3.77
2022-09-04T19:46:04.308Z,3.63
2022-09-04T19:46:15.503Z,3.77
2022-09-04T19:53:17.629Z,3.57
2022-09-04T19:53:24.221Z,4.13
2022-09-04T19:55:25.008Z,3.67
2022-09-04T19:58:30.793Z,3.53
2022-09-04T20:01:00.623Z,3.10
2022-09-04T20:03:36.324Z,3.67
2022-09-04T20:06:21.570Z,3.90
2022-09-04T20:09:11.749Z,3.80
2022-09-04T20:11:46.001Z,3.70
2022-09-04T20:14:21.735Z,3.90
2022-09-04T20:17:21.834Z,3.30
2022-09-04T20:19:53.952Z,3.60
2022-09-04T20:22:32.875Z,3.57
2022-09-04T20:25:08.107Z,3.43
2022-09-04T20:27:41.704Z,3.50
2022-09-04T20:30:12.687Z,3.57
2022-09-04T20:32:55.750Z,4.00
2022-09-04T20:35:44.820Z,3.60
2022-09-04T20:38:32.318Z,3.90
2022-09-04T20:41:15.145Z,4.13
2022-09-04T20:43:57.155Z,3.93
2022-09-04T20:52:40.708Z,3.80
2022-09-04T20:52:48.889Z,3.70
2022-09-04T20:52:51.808Z,3.73
2022-09-04T20:55:50.663Z,3.33
2022-09-04T21:03:10.162Z,3.80
2022-09-04T21:03:19.849Z,3.60
2022-09-04T21:05:00.401Z,3.33
2022-09-04T21:07:41.164Z,3.63
2022-09-04T21:10:35.349Z,3.70
2022-09-04T21:13:15.237Z,3.10
2022-09-04T21:15:52.210Z,3.60
2022-09-04T21:18:40.049Z,3.87
2022-09-04T21:21:28.513Z,3.70
2022-09-04T21:24:22.225Z,3.60
2022-09-04T21:27:01.693Z,3.87
2022-09-04T21:29:46.907Z,3.30
2022-09-04T21:32:29.644Z,3.30
2022-09-04T21:35:02.978Z,3.60
2022-09-04T21:37:41.526Z,3.97
2022-09-04T21:40:51.550Z,3.50
2022-09-04T21:43:35.532Z,3.90
2022-09-04T21:46:33.561Z,3.33
2022-09-04T21:49:25.701Z,3.13
2022-09-04T21:51:59.261Z,3.90
2022-09-04T21:57:31.481Z,3.43
2022-09-04T22:02:26.362Z,3.30
2022-09-04T22:02:43.608Z,3.37
2022-09-04T22:04:21.001Z,3.60
2022-09-04T22:09:54.173Z,3.30
2022-09-04T22:13:37.379Z,3.70
2022-09-04T22:13:39.703Z,3.70
2022-09-04T22:16:34.860Z,3.60
2022-09-04T22:19:16.730Z,3.37
2022-09-04T22:22:03.290Z,3.77
2022-09-04T22:25:06.134Z,3.37
2022-09-04T22:28:08.596Z,3.10
2022-09-04T22:30:52.096Z,3.30
2022-09-04T22:34:14.321Z,3.90
2022-09-04T22:36:42.572Z,3.80
2022-09-04T22:39:51.613Z,3.37
2022-09-04T22:42:57.107Z,3.20
2022-09-04T22:45:47.370Z,3.20
2022-09-04T22:48:28.945Z,3.53
2022-09-04T22:50:58.378Z,3.30
2022-09-04T22:53:43.008Z,3.40
2022-09-04T22:56:24.345Z,3.53
2022-09-04T22:59:25.924Z,3.20
2022-09-04T23:02:13.867Z,2.97
2022-09-04T23:05:04.823Z,3.50
2022-09-04T23:13:43.799Z,3.20
2022-09-04T23:14:01.607Z,4.00
2022-09-04T23:14:06.631Z,3.40
2022-09-04T23:17:03.755Z,3.63
2022-09-04T23:25:31.034Z,3.07
2022-09-04T23:26:46.033Z,3.00
2022-09-04T23:26:59.345Z,3.03
2022-09-04T23:29:57.645Z,3.60
2022-09-04T23:32:40.293Z,3.20
2022-09-04T23:35:40.125Z,3.43
2022-09-04T23:38:33.537Z,3.20
2022-09-04T23:41:17.718Z,3.13
2022-09-04T23:43:46.989Z,3.07
2022-09-04T23:46:24.885Z,3.30
2022-09-04T23:49:09.679Z,3.70
2022-09-04T23:51:48.169Z,3.37
2022-09-04T23:54:36.328Z,3.57
2022-09-04T23:57:19.821Z,3.77
